sensor_id;sensor_type;location;lat;lon;timestamp;pressure;altitude;pressure_sealevel;temperature;humidity
71145;BME280;58812;47.698;17.726;2024-03-08T00:02:23;100518.16;;;3.95;100.00
71145;BME280;58812;47.698;17.726;2024-03-08T00:04:49;100513.41;;;4.00;100.00
71145;BME280;58812;47.698;17.726;2024-03-08T00:07:14;100521.00;;;3.92;100.00
71145;BME280;58812;47.698;17.726;2024-03-08T00:09:39;100523.84;;;3.89;100.00
71145;BME280;58812;47.698;17.726;2024-03-08T00:12:05;100511.84;;;3.83;100.00
71145;BME280;58812;47.698;17.726;2024-03-08T00:14:31;100517.88;;;3.85;100.00
71145;BME280;58812;47.698;17.726;2024-03-08T00:16:57;100519.59;;;3.86;100.00
71145;BME280;58812;47.698;17.726;2024-03-08T00:19:22;100514.75;;;3.79;100.00
71145;BME280;58812;47.698;17.726;2024-03-08T00:21:47;100521.13;;;3.76;100.00
71145;BME280;58812;47.698;17.726;2024-03-08T00:24:13;100524.13;;;3.84;100.00
71145;BME280;58812;47.698;17.726;2024-03-08T00:26:39;100524.03;;;3.86;100.00
71145;BME280;58812;47.698;17.726;2024-03-08T00:29:04;100514.84;;;3.91;100.00
71145;BME280;58812;47.698;17.726;2024-03-08T00:31:30;100524.56;;;3.91;100.00
71145;BME280;58812;47.698;17.726;2024-03-08T00:33:56;100517.59;;;3.90;100.00
71145;BME280;58812;47.698;17.726;2024-03-08T00:36:22;100513.34;;;3.87;100.00
71145;BME280;58812;47.698;17.726;2024-03-08T00:38:47;100516.28;;;3.83;100.00
71145;BME280;58812;47.698;17.726;2024-03-08T00:41:13;100513.75;;;3.81;100.00
71145;BME280;58812;47.698;17.726;2024-03-08T00:43:38;100515.22;;;3.85;100.00
71145;BME280;58812;47.698;17.726;2024-03-08T00:46:04;100509.94;;;3.85;100.00
71145;BME280;58812;47.698;17.726;2024-03-08T00:48:29;100506.16;;;3.89;100.00
71145;BME280;58812;47.698;17.726;2024-03-08T00:50:56;100509.94;;;3.85;100.00
71145;BME280;58812;47.698;17.726;2024-03-08T00:53:21;100502.09;;;3.84;100.00
71145;BME280;58812;47.698;17.726;2024-03-08T00:55:47;100503.03;;;3.83;100.00
71145;BME280;58812;47.698;17.726;2024-03-08T00:58:13;100504.72;;;3.84;100.00
71145;BME280;58812;47.698;17.726;2024-03-08T01:00:38;100502.34;;;3.93;100.00
71145;BME280;58812;47.698;17.726;2024-03-08T01:03:04;100497.06;;;3.93;100.00
71145;BME280;58812;47.698;17.726;2024-03-08T01:05:30;100502.16;;;3.96;100.00
71145;BME280;58812;47.698;17.726;2024-03-08T01:07:55;100499.72;;;3.93;100.00
71145;BME280;58812;47.698;17.726;2024-03-08T01:10:20;100503.25;;;4.07;100.00
71145;BME280;58812;47.698;17.726;2024-03-08T01:12:46;100498.69;;;4.09;100.00
71145;BME280;58812;47.698;17.726;2024-03-08T01:15:11;100492.25;;;4.13;100.00
71145;BME280;58812;47.698;17.726;2024-03-08T01:17:37;100483.56;;;4.11;100.00
71145;BME280;58812;47.698;17.726;2024-03-08T01:20:04;100485.47;;;4.09;100.00
71145;BME280;58812;47.698;17.726;2024-03-08T01:22:29;100484.59;;;4.08;100.00
71145;BME280;58812;47.698;17.726;2024-03-08T01:24:57;100481.41;;;4.03;100.00
71145;BME280;58812;47.698;17.726;2024-03-08T01:27:23;100488.06;;;3.96;100.00
71145;BME280;58812;47.698;17.726;2024-03-08T01:29:50;100487.22;;;3.95;100.00
71145;BME280;58812;47.698;17.726;2024-03-08T01:32:15;100478.63;;;3.92;100.00
71145;BME280;58812;47.698;17.726;2024-03-08T01:34:41;100482.03;;;3.94;100.00
71145;BME280;58812;47.698;17.726;2024-03-08T01:37:07;100479.66;;;3.89;100.00
71145;BME280;58812;47.698;17.726;2024-03-08T01:39:33;100477.56;;;3.94;100.00
71145;BME280;58812;47.698;17.726;2024-03-08T01:41:58;100478.81;;;3.89;100.00
71145;BME280;58812;47.698;17.726;2024-03-08T01:44:24;100481.16;;;3.93;100.00
71145;BME280;58812;47.698;17.726;2024-03-08T01:46:50;100478.72;;;3.90;100.00
71145;BME280;58812;47.698;17.726;2024-03-08T01:49:17;100479.03;;;3.86;100.00
71145;BME280;58812;47.698;17.726;2024-03-08T01:51:43;100476.16;;;3.89;100.00
71145;BME280;58812;47.698;17.726;2024-03-08T01:54:10;100476.28;;;3.87;100.00
71145;BME280;58812;47.698;17.726;2024-03-08T01:56:37;100472.84;;;3.85;100.00
71145;BME280;58812;47.698;17.726;2024-03-08T01:59:04;100470.97;;;3.87;100.00
71145;BME280;58812;47.698;17.726;2024-03-08T02:01:31;100468.88;;;3.92;100.00
71145;BME280;58812;47.698;17.726;2024-03-08T02:03:58;100475.66;;;3.96;100.00
71145;BME280;58812;47.698;17.726;2024-03-08T02:06:24;100479.09;;;3.98;100.00
71145;BME280;58812;47.698;17.726;2024-03-08T02:08:49;100473.84;;;3.97;100.00
71145;BME280;58812;47.698;17.726;2024-03-08T02:11:15;100474.63;;;3.99;100.00
71145;BME280;58812;47.698;17.726;2024-03-08T02:13:41;100472.09;;;3.97;100.00
71145;BME280;58812;47.698;17.726;2024-03-08T02:16:06;100481.72;;;3.98;100.00
71145;BME280;58812;47.698;17.726;2024-03-08T02:18:35;100478.88;;;4.01;100.00
71145;BME280;58812;47.698;17.726;2024-03-08T02:21:03;100473.66;;;4.00;100.00
71145;BME280;58812;47.698;17.726;2024-03-08T02:23:29;100480.47;;;4.04;100.00
71145;BME280;58812;47.698;17.726;2024-03-08T02:25:56;100475.91;;;4.06;100.00
71145;BME280;58812;47.698;17.726;2024-03-08T02:28:22;100473.38;;;4.05;100.00
71145;BME280;58812;47.698;17.726;2024-03-08T02:30:52;100475.91;;;4.06;100.00
71145;BME280;58812;47.698;17.726;2024-03-08T02:33:21;100482.19;;;4.05;100.00
71145;BME280;58812;47.698;17.726;2024-03-08T02:35:48;100480.78;;;3.99;100.00
71145;BME280;58812;47.698;17.726;2024-03-08T02:38:23;100478.88;;;4.01;100.00
71145;BME280;58812;47.698;17.726;2024-03-08T02:40:50;100480.09;;;3.96;100.00
71145;BME280;58812;47.698;17.726;2024-03-08T02:43:17;100478.69;;;4.05;100.00
71145;BME280;58812;47.698;17.726;2024-03-08T02:45:45;100474.34;;;4.04;100.00
71145;BME280;58812;47.698;17.726;2024-03-08T02:48:12;100475.75;;;4.09;100.00
71145;BME280;58812;47.698;17.726;2024-03-08T02:50:38;100476.78;;;4.07;100.00
71145;BME280;58812;47.698;17.726;2024-03-08T02:53:05;100478.69;;;4.05;100.00
71145;BME280;58812;47.698;17.726;2024-03-08T02:55:30;100469.97;;;4.02;100.00
71145;BME280;58812;47.698;17.726;2024-03-08T02:57:56;100471.88;;;4.00;100.00
71145;BME280;58812;47.698;17.726;2024-03-08T03:00:22;100472.72;;;4.01;100.00
71145;BME280;58812;47.698;17.726;2024-03-08T03:02:51;100471.75;;;4.02;100.00
71145;BME280;58812;47.698;17.726;2024-03-08T03:05:20;100475.25;;;4.02;100.00
71145;BME280;58812;47.698;17.726;2024-03-08T03:07:46;100478.69;;;4.05;100.00
71145;BME280;58812;47.698;17.726;2024-03-08T03:10:11;100481.63;;;4.00;100.00
71145;BME280;58812;47.698;17.726;2024-03-08T03:12:37;100482.28;;;4.04;100.00
71145;BME280;58812;47.698;17.726;2024-03-08T03:15:04;100480.56;;;4.02;100.00
71145;BME280;58812;47.698;17.726;2024-03-08T03:17:29;100484.94;;;4.04;100.00
71145;BME280;58812;47.698;17.726;2024-03-08T03:19:55;100483.75;;;4.08;100.00
71145;BME280;58812;47.698;17.726;2024-03-08T03:22:21;100484.53;;;4.10;100.00
71145;BME280;58812;47.698;17.726;2024-03-08T03:24:46;100479.56;;;4.18;100.00
71145;BME280;58812;47.698;17.726;2024-03-08T03:27:12;100491.22;;;4.15;100.00
71145;BME280;58812;47.698;17.726;2024-03-08T03:29:41;100486.22;;;4.11;100.00
71145;BME280;58812;47.698;17.726;2024-03-08T03:32:11;100484.44;;;4.11;100.00
71145;BME280;58812;47.698;17.726;2024-03-08T03:34:37;100485.06;;;4.15;100.00
71145;BME280;58812;47.698;17.726;2024-03-08T03:37:03;100480.81;;;4.12;100.00
71145;BME280;58812;47.698;17.726;2024-03-08T03:39:29;100475.62;;;4.11;100.00
71145;BME280;58812;47.698;17.726;2024-03-08T03:41:57;100479.12;;;4.11;100.00
71145;BME280;58812;47.698;17.726;2024-03-08T03:44:23;100477.09;;;4.15;100.00
71145;BME280;58812;47.698;17.726;2024-03-08T03:46:49;100481.66;;;4.13;100.00
71145;BME280;58812;47.698;17.726;2024-03-08T03:49:16;100478.28;;;4.11;100.00
71145;BME280;58812;47.698;17.726;2024-03-08T03:51:42;100486.69;;;4.17;100.00
71145;BME280;58812;47.698;17.726;2024-03-08T03:54:08;100477.22;;;4.13;100.00
71145;BME280;58812;47.698;17.726;2024-03-08T03:56:33;100478.91;;;4.14;100.00
71145;BME280;58812;47.698;17.726;2024-03-08T03:58:58;100480.63;;;4.15;100.00
71145;BME280;58812;47.698;17.726;2024-03-08T04:01:24;100480.72;;;4.14;100.00
71145;BME280;58812;47.698;17.726;2024-03-08T04:03:49;100480.53;;;4.17;100.00
71145;BME280;58812;47.698;17.726;2024-03-08T04:06:15;100485.81;;;4.17;100.00
71145;BME280;58812;47.698;17.726;2024-03-08T04:08:40;100478.06;;;4.14;100.00
71145;BME280;58812;47.698;17.726;2024-03-08T04:11:07;100485.38;;;4.10;100.00
71145;BME280;58812;47.698;17.726;2024-03-08T04:13:34;100481.47;;;4.16;100.00
71145;BME280;58812;47.698;17.726;2024-03-08T04:15:59;100485.06;;;4.15;100.00
71145;BME280;58812;47.698;17.726;2024-03-08T04:18:25;100486.97;;;4.13;100.00
71145;BME280;58812;47.698;17.726;2024-03-08T04:20:50;100489.50;;;4.14;100.00
71145;BME280;58812;47.698;17.726;2024-03-08T04:23:16;100486.78;;;4.16;100.00
71145;BME280;58812;47.698;17.726;2024-03-08T04:25:43;100490.00;;;4.07;100.00
71145;BME280;58812;47.698;17.726;2024-03-08T04:28:09;100485.84;;;4.02;100.00
71145;BME280;58812;47.698;17.726;2024-03-08T04:30:38;100481.41;;;4.03;100.00
71145;BME280;58812;47.698;17.726;2024-03-08T04:33:05;100480.47;;;4.04;100.00
71145;BME280;58812;47.698;17.726;2024-03-08T04:35:31;100484.16;;;4.01;100.00
71145;BME280;58812;47.698;17.726;2024-03-08T04:37:56;100480.16;;;4.09;100.00
71145;BME280;58812;47.698;17.726;2024-03-08T04:40:23;100476.38;;;4.13;100.00
71145;BME280;58812;47.698;17.726;2024-03-08T04:42:48;100478.69;;;4.05;100.00
71145;BME280;58812;47.698;17.726;2024-03-08T04:45:16;100483.88;;;4.06;100.00
71145;BME280;58812;47.698;17.726;2024-03-08T04:47:42;100484.16;;;4.01;100.00
71145;BME280;58812;47.698;17.726;2024-03-08T04:50:08;100477.37;;;3.97;100.00
71145;BME280;58812;47.698;17.726;2024-03-08T04:52:34;100483.31;;;4.01;100.00
71145;BME280;58812;47.698;17.726;2024-03-08T04:54:59;100484.16;;;4.01;100.00
71145;BME280;58812;47.698;17.726;2024-03-08T04:57:25;100487.66;;;4.02;100.00
71145;BME280;58812;47.698;17.726;2024-03-08T04:59:51;100492.88;;;4.04;100.00
71145;BME280;58812;47.698;17.726;2024-03-08T05:02:16;100489.28;;;4.05;100.00
71145;BME280;58812;47.698;17.726;2024-03-08T05:04:42;100493.41;;;4.09;100.00
71145;BME280;58812;47.698;17.726;2024-03-08T05:07:08;100490.75;;;4.09;100.00
71145;BME280;58812;47.698;17.726;2024-03-08T05:09:33;100485.28;;;4.12;100.00
71145;BME280;58812;47.698;17.726;2024-03-08T05:11:59;100487.25;;;4.08;100.00
71145;BME280;58812;47.698;17.726;2024-03-08T05:14:25;100497.78;;;4.10;100.00
71145;BME280;58812;47.698;17.726;2024-03-08T05:16:50;100491.97;;;4.17;100.00
71145;BME280;58812;47.698;17.726;2024-03-08T05:19:16;100496.72;;;4.12;100.00
71145;BME280;58812;47.698;17.726;2024-03-08T05:21:49;100493.78;;;4.17;100.00
71145;BME280;58812;47.698;17.726;2024-03-08T05:24:15;100489.31;;;4.17;100.00
71145;BME280;58812;47.698;17.726;2024-03-08T05:26:41;100492.16;;;4.14;100.00
71145;BME280;58812;47.698;17.726;2024-03-08T05:29:08;100496.59;;;4.14;100.00
71145;BME280;58812;47.698;17.726;2024-03-08T05:31:51;100495.47;;;4.18;100.00
71145;BME280;58812;47.698;17.726;2024-03-08T05:34:17;100503.53;;;4.16;100.00
71145;BME280;58812;47.698;17.726;2024-03-08T05:36:45;100500.09;;;4.14;100.00
71145;BME280;58812;47.698;17.726;2024-03-08T05:39:12;100509.13;;;4.12;100.00
71145;BME280;58812;47.698;17.726;2024-03-08T05:41:41;100503.72;;;4.13;100.00
71145;BME280;58812;47.698;17.726;2024-03-08T05:44:06;100507.75;;;4.19;100.00
71145;BME280;58812;47.698;17.726;2024-03-08T05:46:32;100508.59;;;4.19;100.00
71145;BME280;58812;47.698;17.726;2024-03-08T05:48:58;100510.22;;;4.22;100.00
71145;BME280;58812;47.698;17.726;2024-03-08T05:51:33;100513.06;;;4.19;100.00
71145;BME280;58812;47.698;17.726;2024-03-08T05:54:09;100519.88;;;4.23;100.00
71145;BME280;58812;47.698;17.726;2024-03-08T05:56:35;100514.87;;;4.18;100.00
71145;BME280;58812;47.698;17.726;2024-03-08T05:59:01;100518.56;;;4.16;100.00
71145;BME280;58812;47.698;17.726;2024-03-08T06:01:28;100512.72;;;4.11;100.00
71145;BME280;58812;47.698;17.726;2024-03-08T06:03:54;100517.34;;;4.07;100.00
71145;BME280;58812;47.698;17.726;2024-03-08T06:06:23;100511.56;;;4.15;100.00
71145;BME280;58812;47.698;17.726;2024-03-08T06:08:50;100521.16;;;4.30;100.00
71145;BME280;58812;47.698;17.726;2024-03-08T06:11:16;100524.38;;;4.35;100.00
71145;BME280;58812;47.698;17.726;2024-03-08T06:13:46;100520.97;;;4.33;100.00
71145;BME280;58812;47.698;17.726;2024-03-08T06:16:11;100525.09;;;4.37;100.00
71145;BME280;58812;47.698;17.726;2024-03-08T06:18:37;100517.38;;;4.34;100.00
71145;BME280;58812;47.698;17.726;2024-03-08T06:21:04;100522.84;;;4.31;100.00
71145;BME280;58812;47.698;17.726;2024-03-08T06:23:41;100518.81;;;4.25;100.00
71145;BME280;58812;47.698;17.726;2024-03-08T06:26:07;100516.94;;;4.27;100.00
71145;BME280;58812;47.698;17.726;2024-03-08T06:28:33;100518.97;;;4.37;100.00
71145;BME280;58812;47.698;17.726;2024-03-08T06:31:00;100526.28;;;4.33;100.00
71145;BME280;58812;47.698;17.726;2024-03-08T06:33:25;100532.03;;;4.40;100.00
71145;BME280;58812;47.698;17.726;2024-03-08T06:35:52;100538.34;;;4.37;100.00
71145;BME280;58812;47.698;17.726;2024-03-08T06:38:17;100534.53;;;4.28;100.00
71145;BME280;58812;47.698;17.726;2024-03-08T06:40:43;100531.03;;;4.28;100.00
71145;BME280;58812;47.698;17.726;2024-03-08T06:43:09;100527.47;;;4.42;100.00
71145;BME280;58812;47.698;17.726;2024-03-08T06:45:36;100540.12;;;4.51;100.00
71145;BME280;58812;47.698;17.726;2024-03-08T06:48:03;100535.44;;;4.54;100.00
71145;BME280;58812;47.698;17.726;2024-03-08T06:50:28;100538.25;;;4.66;100.00
71145;BME280;58812;47.698;17.726;2024-03-08T06:52:54;100540.78;;;4.67;100.00
71145;BME280;58812;47.698;17.726;2024-03-08T06:55:20;100541.44;;;4.71;100.00
71145;BME280;58812;47.698;17.726;2024-03-08T06:57:46;100538.50;;;4.75;100.00
71145;BME280;58812;47.698;17.726;2024-03-08T07:00:11;100542.72;;;4.78;100.00
71145;BME280;58812;47.698;17.726;2024-03-08T07:02:40;100537.00;;;4.84;100.00
71145;BME280;58812;47.698;17.726;2024-03-08T07:05:06;100540.56;;;4.58;100.00
71145;BME280;58812;47.698;17.726;2024-03-08T07:07:31;100537.59;;;4.62;100.00
71145;BME280;58812;47.698;17.726;2024-03-08T07:09:59;100540.19;;;4.76;100.00
71145;BME280;58812;47.698;17.726;2024-03-08T07:12:24;100539.25;;;4.90;100.00
71145;BME280;58812;47.698;17.726;2024-03-08T07:14:50;100537.25;;;4.94;100.00
71145;BME280;58812;47.698;17.726;2024-03-08T07:17:16;100537.69;;;5.00;100.00
71145;BME280;58812;47.698;17.726;2024-03-08T07:19:41;100538.97;;;5.07;100.00
71145;BME280;58812;47.698;17.726;2024-03-08T07:22:07;100533.66;;;5.07;100.00
71145;BME280;58812;47.698;17.726;2024-03-08T07:24:36;100537.38;;;5.05;100.00
71145;BME280;58812;47.698;17.726;2024-03-08T07:27:03;100537.56;;;5.15;100.00
71145;BME280;58812;47.698;17.726;2024-03-08T07:29:30;100533.03;;;5.17;100.00
71145;BME280;58812;47.698;17.726;2024-03-08T07:31:55;100542.56;;;5.19;100.00
71145;BME280;58812;47.698;17.726;2024-03-08T07:34:29;100541.53;;;5.22;100.00
71145;BME280;58812;47.698;17.726;2024-03-08T07:36:57;100541.09;;;5.28;100.00
71145;BME280;58812;47.698;17.726;2024-03-08T07:39:23;100540.22;;;5.27;100.00
71145;BME280;58812;47.698;17.726;2024-03-08T07:41:49;100542.25;;;4.98;100.00
71145;BME280;58812;47.698;17.726;2024-03-08T07:44:18;100535.56;;;5.05;100.00
71145;BME280;58812;47.698;17.726;2024-03-08T07:46:43;100543.84;;;5.14;100.00
71145;BME280;58812;47.698;17.726;2024-03-08T07:49:09;100543.41;;;5.20;100.00
71145;BME280;58812;47.698;17.726;2024-03-08T07:51:36;100546.91;;;5.33;100.00
71145;BME280;58812;47.698;17.726;2024-03-08T07:54:02;100542.37;;;5.35;100.00
71145;BME280;58812;47.698;17.726;2024-03-08T07:56:29;100553.53;;;5.40;100.00
71145;BME280;58812;47.698;17.726;2024-03-08T07:58:55;100555.97;;;5.30;100.00
71145;BME280;58812;47.698;17.726;2024-03-08T08:01:20;100555.75;;;5.46;100.00
71145;BME280;58812;47.698;17.726;2024-03-08T08:03:46;100547.25;;;5.54;100.00
71145;BME280;58812;47.698;17.726;2024-03-08T08:06:15;100550.44;;;5.59;100.00
71145;BME280;58812;47.698;17.726;2024-03-08T08:08:44;100556.25;;;5.51;100.00
71145;BME280;58812;47.698;17.726;2024-03-08T08:11:09;100551.72;;;5.53;100.00
71145;BME280;58812;47.698;17.726;2024-03-08T08:13:36;100559.88;;;5.63;100.00
71145;BME280;58812;47.698;17.726;2024-03-08T08:16:02;100552.31;;;5.82;100.00
71145;BME280;58812;47.698;17.726;2024-03-08T08:18:29;100552.94;;;5.86;100.00
71145;BME280;58812;47.698;17.726;2024-03-08T08:20:55;100549.34;;;5.74;100.00
71145;BME280;58812;47.698;17.726;2024-03-08T08:23:20;100556.03;;;5.80;100.00
71145;BME280;58812;47.698;17.726;2024-03-08T08:25:46;100554.25;;;5.93;100.00
71145;BME280;58812;47.698;17.726;2024-03-08T08:28:16;100555.25;;;6.03;100.00
71145;BME280;58812;47.698;17.726;2024-03-08T08:30:43;100553.78;;;5.86;100.00
71145;BME280;58812;47.698;17.726;2024-03-08T08:33:08;100559.59;;;6.04;100.00
71145;BME280;58812;47.698;17.726;2024-03-08T08:35:34;100559.16;;;6.10;100.00
71145;BME280;58812;47.698;17.726;2024-03-08T08:37:59;100555.41;;;6.26;100.00
71145;BME280;58812;47.698;17.726;2024-03-08T08:40:25;100550.72;;;6.29;100.00
71145;BME280;58812;47.698;17.726;2024-03-08T08:42:53;100551.12;;;6.36;100.00
71145;BME280;58812;47.698;17.726;2024-03-08T08:45:19;100562.09;;;6.55;100.00
71145;BME280;58812;47.698;17.726;2024-03-08T08:47:44;100559.72;;;6.63;100.00
71145;BME280;58812;47.698;17.726;2024-03-08T08:50:10;100559.94;;;6.60;100.00
71145;BME280;58812;47.698;17.726;2024-03-08T08:52:39;100556.50;;;6.71;100.00
71145;BME280;58812;47.698;17.726;2024-03-08T08:55:05;100559.72;;;6.63;100.00
71145;BME280;58812;47.698;17.726;2024-03-08T08:57:32;100565.03;;;6.63;100.00
71145;BME280;58812;47.698;17.726;2024-03-08T08:59:58;100553.03;;;6.34;100.00
71145;BME280;58812;47.698;17.726;2024-03-08T09:02:24;100561.31;;;6.42;100.00
71145;BME280;58812;47.698;17.726;2024-03-08T09:04:50;100560.69;;;6.38;100.00
71145;BME280;58812;47.698;17.726;2024-03-08T09:07:16;100557.09;;;6.51;100.00
71145;BME280;58812;47.698;17.726;2024-03-08T09:09:44;100566.97;;;6.61;100.00
71145;BME280;58812;47.698;17.726;2024-03-08T09:12:10;100561.63;;;6.61;100.00
71145;BME280;58812;47.698;17.726;2024-03-08T09:14:40;100556.31;;;6.37;100.00
71145;BME280;58812;47.698;17.726;2024-03-08T09:17:05;100559.81;;;6.14;100.00
71145;BME280;58812;47.698;17.726;2024-03-08T09:19:34;100561.59;;;6.50;100.00
71145;BME280;58812;47.698;17.726;2024-03-08T09:21:59;100556.09;;;6.64;100.00
71145;BME280;58812;47.698;17.726;2024-03-08T09:24:24;100559.94;;;6.60;100.00
71145;BME280;58812;47.698;17.726;2024-03-08T09:26:50;100545.00;;;6.71;100.00
71145;BME280;58812;47.698;17.726;2024-03-08T09:29:17;100552.44;;;6.54;100.00
71145;BME280;58812;47.698;17.726;2024-03-08T09:31:42;100549.88;;;6.29;100.00
71145;BME280;58812;47.698;17.726;2024-03-08T09:34:08;100550.16;;;6.61;100.00
71145;BME280;58812;47.698;17.726;2024-03-08T09:36:34;100549.81;;;6.65;100.00
71145;BME280;58812;47.698;17.726;2024-03-08T09:38:59;100551.56;;;6.78;100.00
71145;BME280;58812;47.698;17.726;2024-03-08T09:41:26;100550.16;;;6.96;98.92
71145;BME280;58812;47.698;17.726;2024-03-08T09:43:51;100551.41;;;7.03;97.77
71145;BME280;58812;47.698;17.726;2024-03-08T09:46:18;100550.44;;;7.15;96.70
71145;BME280;58812;47.698;17.726;2024-03-08T09:48:45;100550.94;;;6.74;95.96
71145;BME280;58812;47.698;17.726;2024-03-08T09:51:12;100552.03;;;6.72;98.70
71145;BME280;58812;47.698;17.726;2024-03-08T09:53:40;100548.97;;;6.41;98.59
71145;BME280;58812;47.698;17.726;2024-03-08T09:56:07;100547.69;;;6.47;99.84
71145;BME280;58812;47.698;17.726;2024-03-08T09:58:33;100557.16;;;6.14;99.80
71145;BME280;58812;47.698;17.726;2024-03-08T10:00:59;100557.16;;;6.14;100.00
71145;BME280;58812;47.698;17.726;2024-03-08T10:03:27;100556.47;;;5.99;100.00
71145;BME280;58812;47.698;17.726;2024-03-08T10:05:53;100547.84;;;5.83;100.00
71145;BME280;58812;47.698;17.726;2024-03-08T10:08:21;100552.75;;;5.76;100.00
71145;BME280;58812;47.698;17.726;2024-03-08T10:10:47;100550.62;;;5.81;100.00
71145;BME280;58812;47.698;17.726;2024-03-08T10:13:12;100549.94;;;5.90;100.00
71145;BME280;58812;47.698;17.726;2024-03-08T10:15:41;100557.56;;;6.21;100.00
71145;BME280;58812;47.698;17.726;2024-03-08T10:18:07;100552.63;;;6.27;100.00
71145;BME280;58812;47.698;17.726;2024-03-08T10:20:33;100556.56;;;6.58;99.22
71145;BME280;58812;47.698;17.726;2024-03-08T10:23:00;100552.25;;;6.68;99.82
71145;BME280;58812;47.698;17.726;2024-03-08T10:25:26;100552.37;;;6.43;96.69
71145;BME280;58812;47.698;17.726;2024-03-08T10:27:51;100546.53;;;6.38;96.49
71145;BME280;58812;47.698;17.726;2024-03-08T10:30:17;100553.78;;;6.60;97.43
71145;BME280;58812;47.698;17.726;2024-03-08T10:32:47;100558.75;;;6.88;95.78
71145;BME280;58812;47.698;17.726;2024-03-08T10:35:12;100557.44;;;6.94;93.66
71145;BME280;58812;47.698;17.726;2024-03-08T10:37:48;100553.47;;;6.76;94.96
71145;BME280;58812;47.698;17.726;2024-03-08T10:40:19;100556.84;;;6.66;92.83
71145;BME280;58812;47.698;17.726;2024-03-08T10:42:58;100554.38;;;6.52;92.57
71145;BME280;58812;47.698;17.726;2024-03-08T10:45:40;100553.94;;;6.69;92.26
71145;BME280;58812;47.698;17.726;2024-03-08T10:51:06;100556.72;;;6.44;92.25
71145;BME280;58812;47.698;17.726;2024-03-08T10:53:36;100552.25;;;6.68;91.85
71145;BME280;58812;47.698;17.726;2024-03-08T10:56:04;100548.59;;;6.69;92.27
71145;BME280;58812;47.698;17.726;2024-03-08T10:58:30;100549.72;;;6.43;92.54
71145;BME280;58812;47.698;17.726;2024-03-08T11:00:57;100551.28;;;6.69;91.73
71145;BME280;58812;47.698;17.726;2024-03-08T11:06:15;100539.91;;;6.43;90.62
71145;BME280;58812;47.698;17.726;2024-03-08T11:08:41;100548.91;;;6.54;90.37
71145;BME280;58812;47.698;17.726;2024-03-08T11:11:30;100550.97;;;6.85;89.96
71145;BME280;58812;47.698;17.726;2024-03-08T11:13:56;100541.25;;;6.73;88.57
71145;BME280;58812;47.698;17.726;2024-03-08T11:19:44;100543.81;;;7.21;88.89
71145;BME280;58812;47.698;17.726;2024-03-08T11:21:43;100535.41;;;7.03;88.32
71145;BME280;58812;47.698;17.726;2024-03-08T11:24:11;100537.78;;;7.30;86.81
71145;BME280;58812;47.698;17.726;2024-03-08T11:26:37;100537.06;;;7.62;86.89
71145;BME280;58812;47.698;17.726;2024-03-08T11:32:12;100536.31;;;7.26;88.52
71145;BME280;58812;47.698;17.726;2024-03-08T11:34:42;100526.91;;;7.56;85.55
71145;BME280;58812;47.698;17.726;2024-03-08T11:37:12;100535.44;;;7.14;87.89
71145;BME280;58812;47.698;17.726;2024-03-08T11:39:51;100532.34;;;7.43;87.54
71145;BME280;58812;47.698;17.726;2024-03-08T11:42:19;100527.25;;;7.17;88.53
71145;BME280;58812;47.698;17.726;2024-03-08T11:44:48;100525.03;;;7.22;89.08
71145;BME280;58812;47.698;17.726;2024-03-08T11:47:14;100524.81;;;7.14;88.32
71145;BME280;58812;47.698;17.726;2024-03-08T11:49:40;100520.88;;;6.96;88.97
71145;BME280;58812;47.698;17.726;2024-03-08T11:52:17;100519.44;;;7.03;91.33
71145;BME280;58812;47.698;17.726;2024-03-08T11:54:47;100519.75;;;7.45;89.28
71145;BME280;58812;47.698;17.726;2024-03-08T11:57:17;100521.72;;;7.65;88.15
71145;BME280;58812;47.698;17.726;2024-03-08T11:59:55;100517.06;;;7.34;88.06
71145;BME280;58812;47.698;17.726;2024-03-08T12:02:22;100513.94;;;7.51;86.88
71145;BME280;58812;47.698;17.726;2024-03-08T12:04:56;100516.25;;;7.67;85.51
71145;BME280;58812;47.698;17.726;2024-03-08T12:07:22;100519.63;;;7.58;86.48
71145;BME280;58812;47.698;17.726;2024-03-08T12:10:14;100519.75;;;7.79;85.42
71145;BME280;58812;47.698;17.726;2024-03-08T12:12:44;100520.97;;;7.63;87.46
71145;BME280;58812;47.698;17.726;2024-03-08T12:15:09;100513.22;;;7.38;87.77
71145;BME280;58812;47.698;17.726;2024-03-08T12:17:37;100511.06;;;7.65;87.17
71145;BME280;58812;47.698;17.726;2024-03-08T12:20:15;100509.56;;;7.95;86.16
71145;BME280;58812;47.698;17.726;2024-03-08T12:22:45;100500.09;;;8.02;85.58
71145;BME280;58812;47.698;17.726;2024-03-08T12:25:11;100501.31;;;7.98;82.98
71145;BME280;58812;47.698;17.726;2024-03-08T12:27:41;100495.44;;;8.15;82.27
71145;BME280;58812;47.698;17.726;2024-03-08T12:30:23;100504.97;;;7.74;84.75
71145;BME280;58812;47.698;17.726;2024-03-08T12:32:56;100494.63;;;8.03;84.48
71145;BME280;58812;47.698;17.726;2024-03-08T12:35:23;100496.94;;;8.08;84.22
71145;BME280;58812;47.698;17.726;2024-03-08T12:37:54;100493.31;;;7.98;83.92
71145;BME280;58812;47.698;17.726;2024-03-08T12:40:31;100498.41;;;7.90;82.49
71145;BME280;58812;47.698;17.726;2024-03-08T12:43:07;100491.94;;;8.15;82.52
71145;BME280;58812;47.698;17.726;2024-03-08T12:45:32;100492.31;;;8.10;81.72
71145;BME280;58812;47.698;17.726;2024-03-08T12:47:58;100484.22;;;8.00;82.61
71145;BME280;58812;47.698;17.726;2024-03-08T12:50:24;100486.41;;;7.95;80.82
71145;BME280;58812;47.698;17.726;2024-03-08T12:52:50;100487.56;;;7.59;82.74
71145;BME280;58812;47.698;17.726;2024-03-08T12:55:16;100483.91;;;7.49;84.40